sensor_id;sensor_type;location;lat;lon;timestamp;P1;durP1;ratioP1;P2;durP2;ratioP2
19566;SDS011;9930;49.240;8.548;2022-08-01T00:01:50;1.92;;;1.83;;
19566;SDS011;9930;49.240;8.548;2022-08-01T00:04:16;2.03;;;1.92;;
19566;SDS011;9930;49.240;8.548;2022-08-01T00:06:41;1.88;;;1.77;;
19566;SDS011;9930;49.240;8.548;2022-08-01T00:09:09;1.73;;;1.63;;
19566;SDS011;9930;49.240;8.548;2022-08-01T00:11:35;2.00;;;1.90;;
19566;SDS011;9930;49.240;8.548;2022-08-01T00:14:03;2.20;;;2.00;;
19566;SDS011;9930;49.240;8.548;2022-08-01T00:16:30;2.40;;;2.20;;
19566;SDS011;9930;49.240;8.548;2022-08-01T00:18:55;2.40;;;2.20;;
19566;SDS011;9930;49.240;8.548;2022-08-01T00:21:23;2.20;;;2.10;;
19566;SDS011;9930;49.240;8.548;2022-08-01T00:23:54;2.17;;;1.98;;
19566;SDS011;9930;49.240;8.548;2022-08-01T00:26:20;1.90;;;1.80;;
19566;SDS011;9930;49.240;8.548;2022-08-01T00:28:45;2.30;;;2.10;;
19566;SDS011;9930;49.240;8.548;2022-08-01T00:31:13;2.13;;;1.92;;
19566;SDS011;9930;49.240;8.548;2022-08-01T00:33:39;2.28;;;2.17;;
19566;SDS011;9930;49.240;8.548;2022-08-01T00:36:05;2.38;;;2.17;;
19566;SDS011;9930;49.240;8.548;2022-08-01T00:38:33;2.10;;;2.00;;
19566;SDS011;9930;49.240;8.548;2022-08-01T00:40:59;2.50;;;2.28;;
19566;SDS011;9930;49.240;8.548;2022-08-01T00:43:25;1.95;;;1.85;;
19566;SDS011;9930;49.240;8.548;2022-08-01T00:45:53;2.00;;;1.90;;
19566;SDS011;9930;49.240;8.548;2022-08-01T00:48:19;1.92;;;1.83;;
19566;SDS011;9930;49.240;8.548;2022-08-01T00:50:45;2.00;;;1.90;;
19566;SDS011;9930;49.240;8.548;2022-08-01T00:53:11;1.83;;;1.73;;
19566;SDS011;9930;49.240;8.548;2022-08-01T00:55:37;2.00;;;1.90;;
19566;SDS011;9930;49.240;8.548;2022-08-01T00:58:06;2.55;;;1.90;;
19566;SDS011;9930;49.240;8.548;2022-08-01T01:00:34;2.08;;;1.88;;
19566;SDS011;9930;49.240;8.548;2022-08-01T01:03:03;2.30;;;2.10;;
19566;SDS011;9930;49.240;8.548;2022-08-01T01:05:33;2.50;;;2.30;;
19566;SDS011;9930;49.240;8.548;2022-08-01T01:08:22;2.20;;;2.05;;
19566;SDS011;9930;49.240;8.548;2022-08-01T01:14:10;1.92;;;1.83;;
19566;SDS011;9930;49.240;8.548;2022-08-01T01:17:09;2.13;;;1.92;;
19566;SDS011;9930;49.240;8.548;2022-08-01T01:19:41;1.95;;;1.85;;
19566;SDS011;9930;49.240;8.548;2022-08-01T01:25:10;2.20;;;2.10;;
19566;SDS011;9930;49.240;8.548;2022-08-01T01:30:31;1.98;;;1.88;;
19566;SDS011;9930;49.240;8.548;2022-08-01T01:32:59;2.03;;;1.90;;
19566;SDS011;9930;49.240;8.548;2022-08-01T01:35:31;2.50;;;2.30;;
19566;SDS011;9930;49.240;8.548;2022-08-01T01:38:07;2.33;;;1.92;;
19566;SDS011;9930;49.240;8.548;2022-08-01T01:40:42;2.10;;;2.00;;
19566;SDS011;9930;49.240;8.548;2022-08-01T01:43:11;2.30;;;2.20;;
19566;SDS011;9930;49.240;8.548;2022-08-01T01:45:39;2.53;;;2.30;;
19566;SDS011;9930;49.240;8.548;2022-08-01T01:48:09;2.65;;;2.33;;
19566;SDS011;9930;49.240;8.548;2022-08-01T01:50:38;2.47;;;2.28;;
19566;SDS011;9930;49.240;8.548;2022-08-01T01:53:15;2.35;;;2.15;;
19566;SDS011;9930;49.240;8.548;2022-08-01T01:55:44;2.35;;;2.20;;
19566;SDS011;9930;49.240;8.548;2022-08-01T01:58:14;2.08;;;1.98;;
19566;SDS011;9930;49.240;8.548;2022-08-01T02:00:44;2.22;;;2.13;;
19566;SDS011;9930;49.240;8.548;2022-08-01T02:03:14;2.00;;;1.90;;
19566;SDS011;9930;49.240;8.548;2022-08-01T02:05:42;2.08;;;1.98;;
19566;SDS011;9930;49.240;8.548;2022-08-01T02:08:09;2.25;;;2.15;;
19566;SDS011;9930;49.240;8.548;2022-08-01T02:10:38;2.50;;;2.30;;
19566;SDS011;9930;49.240;8.548;2022-08-01T02:13:30;2.03;;;1.92;;
19566;SDS011;9930;49.240;8.548;2022-08-01T02:16:01;2.55;;;2.10;;
19566;SDS011;9930;49.240;8.548;2022-08-01T02:18:29;2.42;;;2.22;;
19566;SDS011;9930;49.240;8.548;2022-08-01T02:20:55;2.38;;;2.17;;
19566;SDS011;9930;49.240;8.548;2022-08-01T02:23:28;2.35;;;2.15;;
19566;SDS011;9930;49.240;8.548;2022-08-01T02:26:01;2.53;;;2.33;;
19566;SDS011;9930;49.240;8.548;2022-08-01T02:28:36;2.10;;;2.00;;
19566;SDS011;9930;49.240;8.548;2022-08-01T02:31:25;2.15;;;2.03;;
19566;SDS011;9930;49.240;8.548;2022-08-01T02:34:02;2.40;;;2.20;;
19566;SDS011;9930;49.240;8.548;2022-08-01T02:36:34;2.60;;;2.40;;
19566;SDS011;9930;49.240;8.548;2022-08-01T02:39:13;2.47;;;2.35;;
19566;SDS011;9930;49.240;8.548;2022-08-01T02:41:45;2.33;;;2.22;;
19566;SDS011;9930;49.240;8.548;2022-08-01T02:44:21;2.50;;;2.25;;
19566;SDS011;9930;49.240;8.548;2022-08-01T02:46:56;2.42;;;2.22;;
19566;SDS011;9930;49.240;8.548;2022-08-01T02:49:29;2.65;;;2.33;;
19566;SDS011;9930;49.240;8.548;2022-08-01T02:52:10;2.67;;;2.47;;
19566;SDS011;9930;49.240;8.548;2022-08-01T02:54:46;2.40;;;2.20;;
19566;SDS011;9930;49.240;8.548;2022-08-01T02:57:16;3.15;;;2.38;;
19566;SDS011;9930;49.240;8.548;2022-08-01T02:59:44;2.47;;;2.28;;
19566;SDS011;9930;49.240;8.548;2022-08-01T03:02:12;2.70;;;2.50;;
19566;SDS011;9930;49.240;8.548;2022-08-01T03:04:42;2.55;;;2.35;;
19566;SDS011;9930;49.240;8.548;2022-08-01T03:07:09;2.80;;;2.60;;
19566;SDS011;9930;49.240;8.548;2022-08-01T03:09:43;2.92;;;2.70;;
19566;SDS011;9930;49.240;8.548;2022-08-01T03:12:14;2.88;;;2.35;;
19566;SDS011;9930;49.240;8.548;2022-08-01T03:14:44;2.55;;;2.35;;
19566;SDS011;9930;49.240;8.548;2022-08-01T03:17:14;2.40;;;2.20;;
19566;SDS011;9930;49.240;8.548;2022-08-01T03:19:45;2.53;;;2.33;;
19566;SDS011;9930;49.240;8.548;2022-08-01T03:22:13;2.28;;;2.10;;
19566;SDS011;9930;49.240;8.548;2022-08-01T03:24:41;2.10;;;2.00;;
19566;SDS011;9930;49.240;8.548;2022-08-01T03:27:15;2.20;;;2.10;;
19566;SDS011;9930;49.240;8.548;2022-08-01T03:29:46;2.33;;;2.20;;
19566;SDS011;9930;49.240;8.548;2022-08-01T03:32:15;2.50;;;2.30;;
19566;SDS011;9930;49.240;8.548;2022-08-01T03:34:43;2.40;;;2.20;;
19566;SDS011;9930;49.240;8.548;2022-08-01T03:37:22;2.35;;;2.15;;
19566;SDS011;9930;49.240;8.548;2022-08-01T03:40:06;3.20;;;2.45;;
19566;SDS011;9930;49.240;8.548;2022-08-01T03:43:00;2.22;;;2.13;;
19566;SDS011;9930;49.240;8.548;2022-08-01T03:45:40;2.15;;;2.05;;
19566;SDS011;9930;49.240;8.548;2022-08-01T03:48:13;2.42;;;2.22;;
19566;SDS011;9930;49.240;8.548;2022-08-01T03:50:47;2.40;;;2.20;;
19566;SDS011;9930;49.240;8.548;2022-08-01T03:53:19;2.58;;;2.38;;
19566;SDS011;9930;49.240;8.548;2022-08-01T03:55:50;3.03;;;2.83;;
19566;SDS011;9930;49.240;8.548;2022-08-01T03:58:19;2.40;;;2.20;;
19566;SDS011;9930;49.240;8.548;2022-08-01T04:00:50;3.05;;;2.25;;
19566;SDS011;9930;49.240;8.548;2022-08-01T04:03:17;3.92;;;2.30;;
19566;SDS011;9930;49.240;8.548;2022-08-01T04:05:45;2.67;;;2.47;;
19566;SDS011;9930;49.240;8.548;2022-08-01T04:08:11;2.58;;;2.38;;
19566;SDS011;9930;49.240;8.548;2022-08-01T04:10:39;2.58;;;2.38;;
19566;SDS011;9930;49.240;8.548;2022-08-01T04:13:09;2.55;;;2.35;;
19566;SDS011;9930;49.240;8.548;2022-08-01T04:15:38;2.40;;;2.20;;
19566;SDS011;9930;49.240;8.548;2022-08-01T04:18:05;2.67;;;2.47;;
19566;SDS011;9930;49.240;8.548;2022-08-01T04:20:35;5.30;;;4.78;;
19566;SDS011;9930;49.240;8.548;2022-08-01T04:23:09;11.32;;;9.27;;
19566;SDS011;9930;49.240;8.548;2022-08-01T04:25:37;8.00;;;6.03;;
19566;SDS011;9930;49.240;8.548;2022-08-01T04:28:13;6.05;;;4.13;;
19566;SDS011;9930;49.240;8.548;2022-08-01T04:30:45;3.45;;;3.15;;
19566;SDS011;9930;49.240;8.548;2022-08-01T04:33:15;3.25;;;2.58;;
19566;SDS011;9930;49.240;8.548;2022-08-01T04:35:46;2.50;;;2.30;;
19566;SDS011;9930;49.240;8.548;2022-08-01T04:38:15;2.42;;;2.20;;
19566;SDS011;9930;49.240;8.548;2022-08-01T04:40:47;2.50;;;2.30;;
19566;SDS011;9930;49.240;8.548;2022-08-01T04:43:17;2.38;;;2.10;;
19566;SDS011;9930;49.240;8.548;2022-08-01T04:45:43;2.35;;;2.15;;
19566;SDS011;9930;49.240;8.548;2022-08-01T04:48:12;2.35;;;2.10;;
19566;SDS011;9930;49.240;8.548;2022-08-01T04:50:41;2.63;;;2.42;;
19566;SDS011;9930;49.240;8.548;2022-08-01T04:53:13;2.25;;;2.15;;
19566;SDS011;9930;49.240;8.548;2022-08-01T04:55:42;2.10;;;1.90;;
19566;SDS011;9930;49.240;8.548;2022-08-01T04:58:13;2.33;;;2.13;;
19566;SDS011;9930;49.240;8.548;2022-08-01T05:00:44;2.03;;;1.92;;
19566;SDS011;9930;49.240;8.548;2022-08-01T05:03:15;2.00;;;1.90;;
19566;SDS011;9930;49.240;8.548;2022-08-01T05:05:41;2.30;;;2.10;;
19566;SDS011;9930;49.240;8.548;2022-08-01T05:08:07;2.03;;;1.92;;
19566;SDS011;9930;49.240;8.548;2022-08-01T05:10:33;2.15;;;1.98;;
19566;SDS011;9930;49.240;8.548;2022-08-01T05:13:06;2.03;;;1.92;;
19566;SDS011;9930;49.240;8.548;2022-08-01T05:15:37;2.10;;;2.00;;
19566;SDS011;9930;49.240;8.548;2022-08-01T05:18:04;1.92;;;1.83;;
19566;SDS011;9930;49.240;8.548;2022-08-01T05:20:32;2.08;;;1.88;;
19566;SDS011;9930;49.240;8.548;2022-08-01T05:22:58;2.58;;;2.38;;
19566;SDS011;9930;49.240;8.548;2022-08-01T05:25:26;2.35;;;2.17;;
19566;SDS011;9930;49.240;8.548;2022-08-01T05:27:55;2.50;;;1.90;;
19566;SDS011;9930;49.240;8.548;2022-08-01T05:30:20;2.10;;;1.90;;
19566;SDS011;9930;49.240;8.548;2022-08-01T05:32:46;2.03;;;1.92;;
19566;SDS011;9930;49.240;8.548;2022-08-01T05:35:14;3.28;;;2.20;;
19566;SDS011;9930;49.240;8.548;2022-08-01T05:37:40;2.40;;;1.98;;
19566;SDS011;9930;49.240;8.548;2022-08-01T05:40:06;2.55;;;2.20;;
19566;SDS011;9930;49.240;8.548;2022-08-01T05:42:33;1.85;;;1.70;;
19566;SDS011;9930;49.240;8.548;2022-08-01T05:45:01;1.92;;;1.80;;
19566;SDS011;9930;49.240;8.548;2022-08-01T05:47:27;1.92;;;1.73;;
19566;SDS011;9930;49.240;8.548;2022-08-01T05:49:52;1.80;;;1.70;;
19566;SDS011;9930;49.240;8.548;2022-08-01T05:52:18;1.88;;;1.77;;
19566;SDS011;9930;49.240;8.548;2022-08-01T05:54:44;2.72;;;1.70;;
19566;SDS011;9930;49.240;8.548;2022-08-01T05:57:09;2.10;;;1.90;;
19566;SDS011;9930;49.240;8.548;2022-08-01T05:59:35;1.98;;;1.77;;
19566;SDS011;9930;49.240;8.548;2022-08-01T06:02:01;2.05;;;1.73;;
19566;SDS011;9930;49.240;8.548;2022-08-01T06:04:29;2.25;;;2.00;;
19566;SDS011;9930;49.240;8.548;2022-08-01T06:07:00;1.83;;;1.70;;
19566;SDS011;9930;49.240;8.548;2022-08-01T06:09:28;1.60;;;1.50;;
19566;SDS011;9930;49.240;8.548;2022-08-01T06:11:59;3.45;;;1.73;;
19566;SDS011;9930;49.240;8.548;2022-08-01T06:14:24;2.38;;;1.40;;
19566;SDS011;9930;49.240;8.548;2022-08-01T06:16:50;1.52;;;1.42;;
19566;SDS011;9930;49.240;8.548;2022-08-01T06:19:18;1.83;;;1.40;;
19566;SDS011;9930;49.240;8.548;2022-08-01T06:21:44;1.40;;;1.30;;
19566;SDS011;9930;49.240;8.548;2022-08-01T06:24:09;1.52;;;1.27;;
19566;SDS011;9930;49.240;8.548;2022-08-01T06:26:35;2.33;;;1.30;;
19566;SDS011;9930;49.240;8.548;2022-08-01T06:29:02;1.27;;;1.27;;
19566;SDS011;9930;49.240;8.548;2022-08-01T06:31:30;1.85;;;1.75;;
19566;SDS011;9930;49.240;8.548;2022-08-01T06:33:56;1.00;;;1.00;;
19566;SDS011;9930;49.240;8.548;2022-08-01T06:36:22;1.10;;;1.00;;
19566;SDS011;9930;49.240;8.548;2022-08-01T06:38:50;1.08;;;1.00;;
19566;SDS011;9930;49.240;8.548;2022-08-01T06:41:16;0.80;;;0.80;;
19566;SDS011;9930;49.240;8.548;2022-08-01T06:43:42;0.77;;;0.77;;
19566;SDS011;9930;49.240;8.548;2022-08-01T06:46:09;0.75;;;0.70;;
19566;SDS011;9930;49.240;8.548;2022-08-01T06:48:35;1.20;;;0.70;;
19566;SDS011;9930;49.240;8.548;2022-08-01T06:51:04;2.25;;;0.80;;
19566;SDS011;9930;49.240;8.548;2022-08-01T06:53:33;1.63;;;0.90;;
19566;SDS011;9930;49.240;8.548;2022-08-01T06:56:03;0.90;;;0.90;;
19566;SDS011;9930;49.240;8.548;2022-08-01T06:58:30;1.20;;;0.90;;
19566;SDS011;9930;49.240;8.548;2022-08-01T07:00:58;1.30;;;0.98;;
19566;SDS011;9930;49.240;8.548;2022-08-01T07:03:24;1.15;;;1.05;;
19566;SDS011;9930;49.240;8.548;2022-08-01T07:05:50;1.17;;;1.00;;
19566;SDS011;9930;49.240;8.548;2022-08-01T07:08:16;1.00;;;1.00;;
19566;SDS011;9930;49.240;8.548;2022-08-01T07:10:41;1.05;;;0.90;;
19566;SDS011;9930;49.240;8.548;2022-08-01T07:13:08;0.95;;;0.95;;
19566;SDS011;9930;49.240;8.548;2022-08-01T07:15:33;1.40;;;1.20;;
19566;SDS011;9930;49.240;8.548;2022-08-01T07:18:02;1.05;;;1.05;;
19566;SDS011;9930;49.240;8.548;2022-08-01T07:20:29;1.30;;;1.10;;
19566;SDS011;9930;49.240;8.548;2022-08-01T07:22:55;1.45;;;1.33;;
19566;SDS011;9930;49.240;8.548;2022-08-01T07:25:20;1.00;;;1.00;;
19566;SDS011;9930;49.240;8.548;2022-08-01T07:27:46;1.55;;;1.27;;
19566;SDS011;9930;49.240;8.548;2022-08-01T07:30:12;1.27;;;1.17;;
19566;SDS011;9930;49.240;8.548;2022-08-01T07:32:40;1.30;;;1.20;;
19566;SDS011;9930;49.240;8.548;2022-08-01T07:35:09;1.23;;;1.00;;
19566;SDS011;9930;49.240;8.548;2022-08-01T07:37:37;2.17;;;1.30;;
19566;SDS011;9930;49.240;8.548;2022-08-01T07:40:03;1.42;;;1.15;;
19566;SDS011;9930;49.240;8.548;2022-08-01T07:42:30;1.30;;;1.20;;
19566;SDS011;9930;49.240;8.548;2022-08-01T07:44:57;1.20;;;1.10;;
19566;SDS011;9930;49.240;8.548;2022-08-01T07:47:26;1.38;;;0.90;;
19566;SDS011;9930;49.240;8.548;2022-08-01T07:49:52;1.38;;;1.27;;
19566;SDS011;9930;49.240;8.548;2022-08-01T07:52:26;1.33;;;0.90;;
19566;SDS011;9930;49.240;8.548;2022-08-01T07:54:52;1.00;;;0.90;;
19566;SDS011;9930;49.240;8.548;2022-08-01T07:57:18;1.30;;;1.20;;
19566;SDS011;9930;49.240;8.548;2022-08-01T07:59:52;1.10;;;1.00;;
19566;SDS011;9930;49.240;8.548;2022-08-01T08:02:18;1.10;;;1.00;;
19566;SDS011;9930;49.240;8.548;2022-08-01T08:04:43;0.80;;;0.80;;
19566;SDS011;9930;49.240;8.548;2022-08-01T08:07:09;2.00;;;0.90;;
19566;SDS011;9930;49.240;8.548;2022-08-01T08:09:35;0.75;;;0.75;;
19566;SDS011;9930;49.240;8.548;2022-08-01T08:12:03;1.15;;;0.90;;
19566;SDS011;9930;49.240;8.548;2022-08-01T08:14:32;1.40;;;0.93;;
19566;SDS011;9930;49.240;8.548;2022-08-01T08:16:57;0.90;;;0.90;;
19566;SDS011;9930;49.240;8.548;2022-08-01T08:19:23;0.90;;;0.90;;
19566;SDS011;9930;49.240;8.548;2022-08-01T08:21:49;0.90;;;0.90;;
19566;SDS011;9930;49.240;8.548;2022-08-01T08:24:14;1.38;;;1.00;;
19566;SDS011;9930;49.240;8.548;2022-08-01T08:26:46;1.15;;;0.90;;
19566;SDS011;9930;49.240;8.548;2022-08-01T08:29:16;1.25;;;1.05;;
19566;SDS011;9930;49.240;8.548;2022-08-01T08:31:42;1.08;;;0.80;;
19566;SDS011;9930;49.240;8.548;2022-08-01T08:34:10;0.70;;;0.70;;
19566;SDS011;9930;49.240;8.548;2022-08-01T08:36:37;1.00;;;0.93;;
19566;SDS011;9930;49.240;8.548;2022-08-01T08:39:03;0.82;;;0.82;;
19566;SDS011;9930;49.240;8.548;2022-08-01T08:41:30;1.08;;;0.93;;
19566;SDS011;9930;49.240;8.548;2022-08-01T08:44:00;8.55;;;1.27;;
19566;SDS011;9930;49.240;8.548;2022-08-01T08:46:32;0.80;;;0.80;;
19566;SDS011;9930;49.240;8.548;2022-08-01T08:49:07;0.80;;;0.80;;
19566;SDS011;9930;49.240;8.548;2022-08-01T08:51:34;0.80;;;0.70;;
19566;SDS011;9930;49.240;8.548;2022-08-01T08:54:07;0.70;;;0.70;;
19566;SDS011;9930;49.240;8.548;2022-08-01T08:56:38;1.05;;;0.80;;
19566;SDS011;9930;49.240;8.548;2022-08-01T08:59:07;0.88;;;0.88;;
19566;SDS011;9930;49.240;8.548;2022-08-01T09:01:33;0.60;;;0.60;;
19566;SDS011;9930;49.240;8.548;2022-08-01T09:04:02;0.77;;;0.77;;
19566;SDS011;9930;49.240;8.548;2022-08-01T09:06:30;0.95;;;0.85;;
19566;SDS011;9930;49.240;8.548;2022-08-01T09:08:59;0.85;;;0.77;;
19566;SDS011;9930;49.240;8.548;2022-08-01T09:11:25;1.17;;;0.75;;
19566;SDS011;9930;49.240;8.548;2022-08-01T09:14:08;1.60;;;0.80;;
19566;SDS011;9930;49.240;8.548;2022-08-01T09:16:42;0.80;;;0.80;;
19566;SDS011;9930;49.240;8.548;2022-08-01T09:19:17;0.70;;;0.70;;
19566;SDS011;9930;49.240;8.548;2022-08-01T09:21:55;0.60;;;0.60;;
19566;SDS011;9930;49.240;8.548;2022-08-01T09:24:26;0.93;;;0.88;;
19566;SDS011;9930;49.240;8.548;2022-08-01T09:26:56;0.63;;;0.63;;
19566;SDS011;9930;49.240;8.548;2022-08-01T09:29:25;0.70;;;0.70;;
19566;SDS011;9930;49.240;8.548;2022-08-01T09:31:59;1.35;;;0.85;;
19566;SDS011;9930;49.240;8.548;2022-08-01T09:34:33;0.90;;;0.80;;
19566;SDS011;9930;49.240;8.548;2022-08-01T09:37:00;0.70;;;0.70;;
19566;SDS011;9930;49.240;8.548;2022-08-01T09:39:32;0.82;;;0.82;;
19566;SDS011;9930;49.240;8.548;2022-08-01T09:42:21;1.35;;;0.88;;
19566;SDS011;9930;49.240;8.548;2022-08-01T09:44:49;0.88;;;0.68;;
19566;SDS011;9930;49.240;8.548;2022-08-01T09:47:19;1.35;;;1.00;;
19566;SDS011;9930;49.240;8.548;2022-08-01T09:49:46;0.98;;;0.90;;
19566;SDS011;9930;49.240;8.548;2022-08-01T09:52:23;1.33;;;0.80;;
19566;SDS011;9930;49.240;8.548;2022-08-01T09:55:24;0.90;;;0.90;;
19566;SDS011;9930;49.240;8.548;2022-08-01T09:57:55;1.15;;;0.80;;
19566;SDS011;9930;49.240;8.548;2022-08-01T10:00:25;1.40;;;0.93;;
19566;SDS011;9930;49.240;8.548;2022-08-01T10:02:52;1.23;;;0.98;;
19566;SDS011;9930;49.240;8.548;2022-08-01T10:05:29;1.00;;;0.90;;
19566;SDS011;9930;49.240;8.548;2022-08-01T10:08:04;0.88;;;0.88;;
19566;SDS011;9930;49.240;8.548;2022-08-01T10:10:30;0.90;;;0.90;;
19566;SDS011;9930;49.240;8.548;2022-08-01T10:12:57;0.80;;;0.80;;
19566;SDS011;9930;49.240;8.548;2022-08-01T10:15:25;0.82;;;0.82;;
19566;SDS011;9930;49.240;8.548;2022-08-01T10:17:59;0.73;;;0.73;;
19566;SDS011;9930;49.240;8.548;2022-08-01T10:20:31;2.35;;;0.95;;
19566;SDS011;9930;49.240;8.548;2022-08-01T10:22:59;1.42;;;1.00;;
19566;SDS011;9930;49.240;8.548;2022-08-01T10:25:31;1.00;;;1.00;;
19566;SDS011;9930;49.240;8.548;2022-08-01T10:28:06;1.13;;;1.02;;
19566;SDS011;9930;49.240;8.548;2022-08-01T10:30:42;1.75;;;0.88;;
19566;SDS011;9930;49.240;8.548;2022-08-01T10:33:09;0.82;;;0.82;;
19566;SDS011;9930;49.240;8.548;2022-08-01T10:35:37;1.02;;;0.90;;
19566;SDS011;9930;49.240;8.548;2022-08-01T10:38:05;0.70;;;0.70;;
19566;SDS011;9930;49.240;8.548;2022-08-01T10:40:32;0.98;;;0.95;;
19566;SDS011;9930;49.240;8.548;2022-08-01T10:43:02;0.80;;;0.80;;
19566;SDS011;9930;49.240;8.548;2022-08-01T10:45:28;0.90;;;0.90;;
19566;SDS011;9930;49.240;8.548;2022-08-01T10:48:04;1.25;;;1.00;;
19566;SDS011;9930;49.240;8.548;2022-08-01T10:50:44;0.80;;;0.80;;
19566;SDS011;9930;49.240;8.548;2022-08-01T10:53:23;0.90;;;0.90;;
19566;SDS011;9930;49.240;8.548;2022-08-01T10:58:22;1.40;;;1.30;;
19566;SDS011;9930;49.240;8.548;2022-08-01T11:03:58;1.40;;;0.93;;
19566;SDS011;9930;49.240;8.548;2022-08-01T11:09:05;0.90;;;0.90;;
19566;SDS011;9930;49.240;8.548;2022-08-01T11:11:59;0.98;;;0.98;;
19566;SDS011;9930;49.240;8.548;2022-08-01T11:17:38;1.20;;;1.10;;
19566;SDS011;9930;49.240;8.548;2022-08-01T11:25:26;1.10;;;1.10;;
19566;SDS011;9930;49.240;8.548;2022-08-01T11:38:47;1.85;;;1.00;;
19566;SDS011;9930;49.240;8.548;2022-08-01T11:52:19;1.40;;;0.90;;
19566;SDS011;9930;49.240;8.548;2022-08-01T11:57:30;1.08;;;1.05;;
19566;SDS011;9930;49.240;8.548;2022-08-01T12:03:05;3.38;;;0.88;;
19566;SDS011;9930;49.240;8.548;2022-08-01T12:05:34;1.10;;;1.10;;
19566;SDS011;9930;49.240;8.548;2022-08-01T12:08:03;1.10;;;1.10;;
19566;SDS011;9930;49.240;8.548;2022-08-01T12:10:33;1.58;;;1.02;;
19566;SDS011;9930;49.240;8.548;2022-08-01T12:13:04;1.80;;;1.05;;
19566;SDS011;9930;49.240;8.548;2022-08-01T12:15:36;1.10;;;1.00;;
19566;SDS011;9930;49.240;8.548;2022-08-01T12:18:06;1.00;;;1.00;;
19566;SDS011;9930;49.240;8.548;2022-08-01T12:20:36;1.20;;;1.10;;
19566;SDS011;9930;49.240;8.548;2022-08-01T12:23:05;1.20;;;1.10;;
19566;SDS011;9930;49.240;8.548;2022-08-01T12:25:36;1.10;;;1.10;;
19566;SDS011;9930;49.240;8.548;2022-08-01T12:28:09;1.08;;;1.08;;
19566;SDS011;9930;49.240;8.548;2022-08-01T12:30:39;1.13;;;1.08;;
19566;SDS011;9930;49.240;8.548;2022-08-01T12:33:07;1.20;;;1.05;;
19566;SDS011;9930;49.240;8.548;2022-08-01T12:35:35;1.08;;;1.08;;
19566;SDS011;9930;49.240;8.548;2022-08-01T12:38:06;1.27;;;1.23;;
19566;SDS011;9930;49.240;8.548;2022-08-01T12:40:43;1.17;;;1.17;;
19566;SDS011;9930;49.240;8.548;2022-08-01T12:43:16;1.38;;;1.23;;
19566;SDS011;9930;49.240;8.548;2022-08-01T12:45:45;1.00;;;1.00;;
19566;SDS011;9930;49.240;8.548;2022-08-01T12:48:17;1.33;;;1.25;;
19566;SDS011;9930;49.240;8.548;2022-08-01T12:50:44;2.03;;;1.10;;
19566;SDS011;9930;49.240;8.548;2022-08-01T12:53:13;1.17;;;1.15;;
19566;SDS011;9930;49.240;8.548;2022-08-01T12:55:59;1.20;;;1.10;;
19566;SDS011;9930;49.240;8.548;2022-08-01T12:58:36;1.23;;;1.10;;
19566;SDS011;9930;49.240;8.548;2022-08-01T13:01:06;1.20;;;1.10;;
19566;SDS011;9930;49.240;8.548;2022-08-01T13:03:35;1.00;;;1.00;;
19566;SDS011;9930;49.240;8.548;2022-08-01T13:06:07;1.27;;;1.10;;
19566;SDS011;9930;49.240;8.548;2022-08-01T13:08:41;1.25;;;1.15;;
19566;SDS011;9930;49.240;8.548;2022-08-01T13:11:11;1.35;;;1.08;;
19566;SDS011;9930;49.240;8.548;2022-08-01T13:16:09;1.00;;;1.00;;
19566;SDS011;9930;49.240;8.548;2022-08-01T13:18:38;1.20;;;1.10;;
19566;SDS011;9930;49.240;8.548;2022-08-01T13:29:10;1.30;;;1.20;;
19566;SDS011;9930;49.240;8.548;2022-08-01T13:31:38;1.30;;;1.20;;
19566;SDS011;9930;49.240;8.548;2022-08-01T13:34:06;1.27;;;1.20;;
19566;SDS011;9930;49.240;8.548;2022-08-01T13:36:33;0.80;;;0.80;;
19566;SDS011;9930;49.240;8.548;2022-08-01T13:39:04;0.90;;;0.90;;
19566;SDS011;9930;49.240;8.548;2022-08-01T13:41:50;0.95;;;0.95;;
19566;SDS011;9930;49.240;8.548;2022-08-01T13:44:17;4.82;;;1.10;;
19566;SDS011;9930;49.240;8.548;2022-08-01T13:46:43;0.80;;;0.80;;
19566;SDS011;9930;49.240;8.548;2022-08-01T13:49:12;0.90;;;0.90;;
19566;SDS011;9930;49.240;8.548;2022-08-01T13:51:39;1.17;;;1.08;;
19566;SDS011;9930;49.240;8.548;2022-08-01T13:54:05;1.05;;;0.90;;
19566;SDS011;9930;49.240;8.548;2022-08-01T13:56:33;1.00;;;1.00;;
19566;SDS011;9930;49.240;8.548;2022-08-01T13:58:59;1.00;;;1.00;;
19566;SDS011;9930;49.240;8.548;2022-08-01T14:01:27;1.10;;;1.00;;
19566;SDS011;9930;49.240;8.548;2022-08-01T14:03:55;0.75;;;0.75;;
19566;SDS011;9930;49.240;8.548;2022-08-01T14:06:21;1.20;;;1.10;;
19566;SDS011;9930;49.240;8.548;2022-08-01T14:08:49;0.70;;;0.70;;
19566;SDS011;9930;49.240;8.548;2022-08-01T14:11:20;0.90;;;0.90;;
19566;SDS011;9930;49.240;8.548;2022-08-01T14:13:48;1.00;;;1.00;;
19566;SDS011;9930;49.240;8.548;2022-08-01T14:16:14;0.90;;;0.90;;
19566;SDS011;9930;49.240;8.548;2022-08-01T14:18:42;2.97;;;0.90;;
19566;SDS011;9930;49.240;8.548;2022-08-01T14:21:10;0.90;;;0.90;;
19566;SDS011;9930;49.240;8.548;2022-08-01T14:23:36;1.00;;;0.90;;
19566;SDS011;9930;49.240;8.548;2022-08-01T14:26:03;0.90;;;0.90;;
19566;SDS011;9930;49.240;8.548;2022-08-01T14:28:29;1.00;;;0.90;;
19566;SDS011;9930;49.240;8.548;2022-08-01T14:31:01;0.73;;;0.73;;
19566;SDS011;9930;49.240;8.548;2022-08-01T14:33:27;0.82;;;0.77;;
19566;SDS011;9930;49.240;8.548;2022-08-01T14:35:57;0.70;;;0.70;;
19566;SDS011;9930;49.240;8.548;2022-08-01T14:38:25;3.80;;;0.80;;
19566;SDS011;9930;49.240;8.548;2022-08-01T14:40:51;0.80;;;0.70;;
19566;SDS011;9930;49.240;8.548;2022-08-01T14:43:17;0.70;;;0.70;;
19566;SDS011;9930;49.240;8.548;2022-08-01T14:45:46;1.25;;;0.98;;
19566;SDS011;9930;49.240;8.548;2022-08-01T14:48:17;0.80;;;0.80;;
19566;SDS011;9930;49.240;8.548;2022-08-01T14:50:43;1.42;;;0.70;;
19566;SDS011;9930;49.240;8.548;2022-08-01T14:53:11;0.73;;;0.73;;
19566;SDS011;9930;49.240;8.548;2022-08-01T14:55:37;0.90;;;0.90;;
19566;SDS011;9930;49.240;8.548;2022-08-01T14:58:03;0.70;;;0.70;;
19566;SDS011;9930;49.240;8.548;2022-08-01T15:00:29;0.75;;;0.75;;
19566;SDS011;9930;49.240;8.548;2022-08-01T15:02:55;0.82;;;0.80;;
19566;SDS011;9930;49.240;8.548;2022-08-01T15:05:25;1.45;;;0.80;;
19566;SDS011;9930;49.240;8.548;2022-08-01T15:07:51;0.80;;;0.80;;
19566;SDS011;9930;49.240;8.548;2022-08-01T15:10:17;0.88;;;0.82;;
19566;SDS011;9930;49.240;8.548;2022-08-01T15:12:45;1.25;;;0.80;;
19566;SDS011;9930;49.240;8.548;2022-08-01T15:15:11;0.80;;;0.80;;
19566;SDS011;9930;49.240;8.548;2022-08-01T15:17:37;1.30;;;0.88;;
19566;SDS011;9930;49.240;8.548;2022-08-01T15:20:05;1.17;;;1.05;;
19566;SDS011;9930;49.240;8.548;2022-08-01T15:22:32;2.40;;;0.98;;
19566;SDS011;9930;49.240;8.548;2022-08-01T15:25:03;2.28;;;2.08;;
19566;SDS011;9930;49.240;8.548;2022-08-01T15:27:30;1.00;;;0.90;;
19566;SDS011;9930;49.240;8.548;2022-08-01T15:29:58;1.38;;;0.80;;
19566;SDS011;9930;49.240;8.548;2022-08-01T15:32:26;0.80;;;0.80;;
19566;SDS011;9930;49.240;8.548;2022-08-01T15:34:52;1.25;;;1.10;;
19566;SDS011;9930;49.240;8.548;2022-08-01T15:37:18;3.17;;;1.85;;
19566;SDS011;9930;49.240;8.548;2022-08-01T15:39:46;1.10;;;1.00;;
19566;SDS011;9930;49.240;8.548;2022-08-01T15:42:16;0.70;;;0.70;;
19566;SDS011;9930;49.240;8.548;2022-08-01T15:44:43;1.33;;;0.95;;
19566;SDS011;9930;49.240;8.548;2022-08-01T15:47:11;0.95;;;0.90;;
19566;SDS011;9930;49.240;8.548;2022-08-01T15:49:37;1.38;;;0.80;;
19566;SDS011;9930;49.240;8.548;2022-08-01T15:52:07;0.80;;;0.80;;
19566;SDS011;9930;49.240;8.548;2022-08-01T15:54:34;0.70;;;0.52;;
19566;SDS011;9930;49.240;8.548;2022-08-01T15:57:00;0.65;;;0.65;;
19566;SDS011;9930;49.240;8.548;2022-08-01T15:59:27;0.70;;;0.70;;
19566;SDS011;9930;49.240;8.548;2022-08-01T16:01:56;1.60;;;1.13;;
19566;SDS011;9930;49.240;8.548;2022-08-01T16:04:21;1.63;;;0.88;;
19566;SDS011;9930;49.240;8.548;2022-08-01T16:06:47;2.00;;;1.30;;
19566;SDS011;9930;49.240;8.548;2022-08-01T16:09:13;1.25;;;0.95;;
19566;SDS011;9930;49.240;8.548;2022-08-01T16:11:42;1.05;;;0.80;;
19566;SDS011;9930;49.240;8.548;2022-08-01T16:14:09;0.98;;;0.80;;
19566;SDS011;9930;49.240;8.548;2022-08-01T16:16:35;0.68;;;0.68;;
19566;SDS011;9930;49.240;8.548;2022-08-01T16:19:01;0.70;;;0.70;;